sensor_id;sensor_type;location;lat;lon;timestamp;pressure;altitude;pressure_sealevel;temperature;humidity
12471;BME280;36499;46.484;13.832;2022-09-24T00:01:24;93249.34;;;7.24;88.05
12471;BME280;36499;46.484;13.832;2022-09-24T00:03:54;93236.94;;;7.19;87.57
12471;BME280;36499;46.484;13.832;2022-09-24T00:06:23;93241.56;;;7.24;88.04
12471;BME280;36499;46.484;13.832;2022-09-24T00:08:53;93245.13;;;7.23;88.59
12471;BME280;36499;46.484;13.832;2022-09-24T00:11:24;93247.38;;;7.26;88.34
12471;BME280;36499;46.484;13.832;2022-09-24T00:13:54;93235.63;;;7.30;87.55
12471;BME280;36499;46.484;13.832;2022-09-24T00:16:25;93241.16;;;7.27;86.61
12471;BME280;36499;46.484;13.832;2022-09-24T00:18:53;93240.19;;;7.28;87.30
12471;BME280;36499;46.484;13.832;2022-09-24T00:21:24;93240.00;;;7.30;87.89
12471;BME280;36499;46.484;13.832;2022-09-24T00:23:53;93238.22;;;7.30;87.67
12471;BME280;36499;46.484;13.832;2022-09-24T00:26:22;93235.00;;;7.28;87.51
12471;BME280;36499;46.484;13.832;2022-09-24T00:29:08;93227.22;;;7.28;86.91
12471;BME280;36499;46.484;13.832;2022-09-24T00:31:35;93232.97;;;7.23;86.16
12471;BME280;36499;46.484;13.832;2022-09-24T00:34:03;93238.41;;;7.29;86.30
12471;BME280;36499;46.484;13.832;2022-09-24T00:36:32;93237.00;;;7.26;87.12
12471;BME280;36499;46.484;13.832;2022-09-24T00:38:59;93237.59;;;7.28;88.22
12471;BME280;36499;46.484;13.832;2022-09-24T00:41:31;93230.44;;;7.30;88.26
12471;BME280;36499;46.484;13.832;2022-09-24T00:44:41;93239.63;;;7.33;88.38
12471;BME280;36499;46.484;13.832;2022-09-24T00:46:47;93233.63;;;7.32;87.42
12471;BME280;36499;46.484;13.832;2022-09-24T00:49:19;93235.81;;;7.29;86.48
12471;BME280;36499;46.484;13.832;2022-09-24T00:51:54;93226.00;;;7.24;86.84
12471;BME280;36499;46.484;13.832;2022-09-24T00:54:25;93230.59;;;7.22;87.01
12471;BME280;36499;46.484;13.832;2022-09-24T00:56:57;93222.38;;;7.18;87.06
12471;BME280;36499;46.484;13.832;2022-09-24T00:59:27;93229.56;;;7.23;87.81
12471;BME280;36499;46.484;13.832;2022-09-24T01:01:55;93220.84;;;7.31;86.59
12471;BME280;36499;46.484;13.832;2022-09-24T01:04:26;93219.84;;;7.25;85.82
12471;BME280;36499;46.484;13.832;2022-09-24T01:06:55;93218.03;;;7.26;85.93
12471;BME280;36499;46.484;13.832;2022-09-24T01:09:26;93216.06;;;7.28;85.40
12471;BME280;36499;46.484;13.832;2022-09-24T01:12:07;93204.88;;;7.27;86.29
12471;BME280;36499;46.484;13.832;2022-09-24T01:14:59;93208.28;;;7.28;86.61
12471;BME280;36499;46.484;13.832;2022-09-24T01:17:42;93190.53;;;7.31;86.69
12471;BME280;36499;46.484;13.832;2022-09-24T01:20:32;93185.00;;;7.34;86.36
12471;BME280;36499;46.484;13.832;2022-09-24T01:23:40;93184.38;;;7.32;86.46
12471;BME280;36499;46.484;13.832;2022-09-24T01:26:32;93189.41;;;7.40;85.93
12471;BME280;36499;46.484;13.832;2022-09-24T01:29:23;93191.19;;;7.40;85.99
12471;BME280;36499;46.484;13.832;2022-09-24T01:32:00;93180.41;;;7.36;85.87
12471;BME280;36499;46.484;13.832;2022-09-24T01:34:38;93172.19;;;7.26;86.55
12471;BME280;36499;46.484;13.832;2022-09-24T01:37:07;93177.31;;;7.19;86.96
12471;BME280;36499;46.484;13.832;2022-09-24T01:39:36;93178.09;;;7.20;86.93
12471;BME280;36499;46.484;13.832;2022-09-24T01:42:05;93173.31;;;7.17;87.17
12471;BME280;36499;46.484;13.832;2022-09-24T01:44:37;93165.16;;;7.20;86.68
12471;BME280;36499;46.484;13.832;2022-09-24T01:47:08;93165.28;;;7.12;86.03
12471;BME280;36499;46.484;13.832;2022-09-24T01:49:37;93174.25;;;7.09;86.18
12471;BME280;36499;46.484;13.832;2022-09-24T01:52:09;93172.84;;;7.07;87.03
12471;BME280;36499;46.484;13.832;2022-09-24T01:54:42;93164.88;;;7.08;87.58
12471;BME280;36499;46.484;13.832;2022-09-24T01:57:22;93168.50;;;7.14;87.45
12471;BME280;36499;46.484;13.832;2022-09-24T01:59:56;93160.53;;;7.15;88.00
12471;BME280;36499;46.484;13.832;2022-09-24T02:02:32;93158.72;;;7.16;88.12
12471;BME280;36499;46.484;13.832;2022-09-24T02:05:10;93158.19;;;7.27;87.75
12471;BME280;36499;46.484;13.832;2022-09-24T02:07:49;93161.00;;;7.26;87.44
12471;BME280;36499;46.484;13.832;2022-09-24T02:10:19;93159.78;;;7.21;86.70
12471;BME280;36499;46.484;13.832;2022-09-24T02:12:51;93160.97;;;7.19;87.49
12471;BME280;36499;46.484;13.832;2022-09-24T02:15:29;93162.75;;;7.18;87.44
12471;BME280;36499;46.484;13.832;2022-09-24T02:18:04;93157.34;;;7.13;86.58
12471;BME280;36499;46.484;13.832;2022-09-24T02:20:37;93164.06;;;7.08;86.13
12471;BME280;36499;46.484;13.832;2022-09-24T02:23:07;93151.75;;;7.16;85.42
12471;BME280;36499;46.484;13.832;2022-09-24T02:25:42;93155.50;;;7.07;86.09
12471;BME280;36499;46.484;13.832;2022-09-24T02:28:16;93149.09;;;7.03;86.46
12471;BME280;36499;46.484;13.832;2022-09-24T02:30:51;93158.84;;;7.01;86.84
12471;BME280;36499;46.484;13.832;2022-09-24T02:33:22;93148.47;;;7.01;87.30
12471;BME280;36499;46.484;13.832;2022-09-24T02:36:09;93152.28;;;7.05;87.32
12471;BME280;36499;46.484;13.832;2022-09-24T02:38:37;93156.06;;;7.03;86.81
12471;BME280;36499;46.484;13.832;2022-09-24T02:41:06;93148.47;;;7.01;86.47
12471;BME280;36499;46.484;13.832;2022-09-24T02:43:34;93145.09;;;7.01;86.50
12471;BME280;36499;46.484;13.832;2022-09-24T02:46:02;93136.91;;;7.04;86.56
12471;BME280;36499;46.484;13.832;2022-09-24T02:48:29;93132.94;;;7.01;86.89
12471;BME280;36499;46.484;13.832;2022-09-24T02:50:56;93134.53;;;7.02;86.71
12471;BME280;36499;46.484;13.832;2022-09-24T02:53:24;93122.94;;;6.98;87.03
12471;BME280;36499;46.484;13.832;2022-09-24T02:55:51;93117.13;;;6.96;86.43
12471;BME280;36499;46.484;13.832;2022-09-24T02:58:18;93121.53;;;6.96;86.63
12471;BME280;36499;46.484;13.832;2022-09-24T03:00:46;93116.13;;;6.91;87.01
12471;BME280;36499;46.484;13.832;2022-09-24T03:03:17;93126.47;;;6.91;87.46
12471;BME280;36499;46.484;13.832;2022-09-24T03:05:45;93121.69;;;6.88;87.85
12471;BME280;36499;46.484;13.832;2022-09-24T03:08:13;93132.25;;;6.93;87.76
12471;BME280;36499;46.484;13.832;2022-09-24T03:10:40;93136.47;;;6.94;87.98
12471;BME280;36499;46.484;13.832;2022-09-24T03:13:07;93143.56;;;6.85;87.77
12471;BME280;36499;46.484;13.832;2022-09-24T03:15:35;93137.63;;;6.85;87.50
12471;BME280;36499;46.484;13.832;2022-09-24T03:18:03;93138.78;;;6.82;87.17
12471;BME280;36499;46.484;13.832;2022-09-24T03:20:31;93137.13;;;6.74;86.44
12471;BME280;36499;46.484;13.832;2022-09-24T03:22:59;93135.06;;;6.63;86.33
12471;BME280;36499;46.484;13.832;2022-09-24T03:25:26;93126.84;;;6.60;86.33
12471;BME280;36499;46.484;13.832;2022-09-24T03:27:54;93123.16;;;6.69;86.05
12471;BME280;36499;46.484;13.832;2022-09-24T03:30:21;93119.47;;;6.57;85.35
12471;BME280;36499;46.484;13.832;2022-09-24T03:33:05;93123.72;;;6.64;85.32
12471;BME280;36499;46.484;13.832;2022-09-24T03:35:34;93115.72;;;6.66;85.26
12471;BME280;36499;46.484;13.832;2022-09-24T03:38:01;93112.97;;;6.67;85.99
12471;BME280;36499;46.484;13.832;2022-09-24T03:40:28;93114.97;;;6.65;86.24
12471;BME280;36499;46.484;13.832;2022-09-24T03:42:55;93119.88;;;6.60;85.64
12471;BME280;36499;46.484;13.832;2022-09-24T03:45:22;93122.09;;;6.63;86.62
12471;BME280;36499;46.484;13.832;2022-09-24T03:47:49;93121.16;;;6.71;85.75
12471;BME280;36499;46.484;13.832;2022-09-24T03:50:17;93119.78;;;6.75;85.25
12471;BME280;36499;46.484;13.832;2022-09-24T03:52:45;93120.75;;;6.67;84.98
12471;BME280;36499;46.484;13.832;2022-09-24T03:55:12;93106.50;;;6.57;85.69
12471;BME280;36499;46.484;13.832;2022-09-24T03:57:40;93107.50;;;6.56;85.86
12471;BME280;36499;46.484;13.832;2022-09-24T04:00:09;93113.44;;;6.50;86.38
12471;BME280;36499;46.484;13.832;2022-09-24T04:02:37;93109.41;;;6.47;87.42
12471;BME280;36499;46.484;13.832;2022-09-24T04:05:06;93105.84;;;6.48;88.18
12471;BME280;36499;46.484;13.832;2022-09-24T04:07:33;93105.28;;;6.53;87.90
12471;BME280;36499;46.484;13.832;2022-09-24T04:10:03;93121.72;;;6.39;86.74
12471;BME280;36499;46.484;13.832;2022-09-24T04:12:30;93128.72;;;6.45;86.23
12471;BME280;36499;46.484;13.832;2022-09-24T04:14:57;93121.75;;;6.45;86.84
12471;BME280;36499;46.484;13.832;2022-09-24T04:17:27;93122.56;;;6.46;87.11
12471;BME280;36499;46.484;13.832;2022-09-24T04:19:56;93122.75;;;6.44;87.49
12471;BME280;36499;46.484;13.832;2022-09-24T04:22:24;93128.56;;;6.46;88.20
12471;BME280;36499;46.484;13.832;2022-09-24T04:24:52;93128.97;;;6.50;88.04
12471;BME280;36499;46.484;13.832;2022-09-24T04:27:21;93130.00;;;6.55;88.20
12471;BME280;36499;46.484;13.832;2022-09-24T04:29:48;93135.44;;;6.39;84.66
12471;BME280;36499;46.484;13.832;2022-09-24T04:32:15;93133.97;;;6.30;86.16
12471;BME280;36499;46.484;13.832;2022-09-24T04:34:42;93127.03;;;6.31;86.89
12471;BME280;36499;46.484;13.832;2022-09-24T04:37:10;93128.59;;;6.32;86.71
12471;BME280;36499;46.484;13.832;2022-09-24T04:39:37;93136.38;;;6.32;87.70
12471;BME280;36499;46.484;13.832;2022-09-24T04:42:04;93141.75;;;6.30;89.55
12471;BME280;36499;46.484;13.832;2022-09-24T04:44:32;93136.19;;;6.33;90.08
12471;BME280;36499;46.484;13.832;2022-09-24T04:47:00;93137.25;;;6.39;90.41
12471;BME280;36499;46.484;13.832;2022-09-24T04:49:28;93137.44;;;6.37;90.18
12471;BME280;36499;46.484;13.832;2022-09-24T04:51:55;93134.84;;;6.37;90.18
12471;BME280;36499;46.484;13.832;2022-09-24T04:54:24;93140.63;;;6.39;90.77
12471;BME280;36499;46.484;13.832;2022-09-24T04:56:54;93136.91;;;6.48;89.26
12471;BME280;36499;46.484;13.832;2022-09-24T04:59:22;93128.72;;;6.45;88.80
12471;BME280;36499;46.484;13.832;2022-09-24T05:01:50;93137.59;;;6.36;88.12
12471;BME280;36499;46.484;13.832;2022-09-24T05:04:20;93131.28;;;6.38;88.03
12471;BME280;36499;46.484;13.832;2022-09-24T05:06:47;93130.47;;;6.38;89.66
12471;BME280;36499;46.484;13.832;2022-09-24T05:09:14;93130.09;;;6.41;89.41
12471;BME280;36499;46.484;13.832;2022-09-24T05:11:41;93124.72;;;6.42;89.87
12471;BME280;36499;46.484;13.832;2022-09-24T05:14:09;93117.56;;;6.44;90.30
12471;BME280;36499;46.484;13.832;2022-09-24T05:16:36;93114.59;;;6.47;91.20
12471;BME280;36499;46.484;13.832;2022-09-24T05:19:05;93114.25;;;6.50;90.73
12471;BME280;36499;46.484;13.832;2022-09-24T05:21:32;93122.00;;;6.50;89.73
12471;BME280;36499;46.484;13.832;2022-09-24T05:23:59;93122.63;;;6.52;89.80
12471;BME280;36499;46.484;13.832;2022-09-24T05:26:26;93118.06;;;6.54;89.57
12471;BME280;36499;46.484;13.832;2022-09-24T05:29:13;93120.97;;;6.45;90.18
12471;BME280;36499;46.484;13.832;2022-09-24T05:31:41;93115.47;;;6.54;89.96
12471;BME280;36499;46.484;13.832;2022-09-24T05:34:10;93114.72;;;6.60;90.43
12471;BME280;36499;46.484;13.832;2022-09-24T05:36:39;93117.97;;;6.69;90.71
12471;BME280;36499;46.484;13.832;2022-09-24T05:39:08;93106.66;;;6.77;90.40
12471;BME280;36499;46.484;13.832;2022-09-24T05:41:36;93116.81;;;6.78;90.38
12471;BME280;36499;46.484;13.832;2022-09-24T05:44:03;93115.28;;;6.84;90.43
12471;BME280;36499;46.484;13.832;2022-09-24T05:46:31;93119.28;;;6.86;89.69
12471;BME280;36499;46.484;13.832;2022-09-24T05:48:59;93117.34;;;6.95;89.83
12471;BME280;36499;46.484;13.832;2022-09-24T05:51:27;93123.19;;;7.03;89.86
12471;BME280;36499;46.484;13.832;2022-09-24T05:53:54;93123.66;;;7.20;92.83
12471;BME280;36499;46.484;13.832;2022-09-24T05:56:23;93131.69;;;7.25;91.58
12471;BME280;36499;46.484;13.832;2022-09-24T05:58:51;93127.16;;;7.34;91.18
12471;BME280;36499;46.484;13.832;2022-09-24T06:01:18;93118.50;;;7.67;94.61
12471;BME280;36499;46.484;13.832;2022-09-24T06:03:45;93108.50;;;8.45;92.82
12471;BME280;36499;46.484;13.832;2022-09-24T06:06:13;93099.91;;;8.97;87.15
12471;BME280;36499;46.484;13.832;2022-09-24T06:08:41;93110.63;;;9.33;86.01
12471;BME280;36499;46.484;13.832;2022-09-24T06:11:08;93110.44;;;9.86;83.86
12471;BME280;36499;46.484;13.832;2022-09-24T06:13:36;93105.19;;;9.99;81.69
12471;BME280;36499;46.484;13.832;2022-09-24T06:16:06;93108.81;;;9.91;80.66
12471;BME280;36499;46.484;13.832;2022-09-24T06:18:36;93106.53;;;9.70;79.96
12471;BME280;36499;46.484;13.832;2022-09-24T06:21:07;93104.38;;;9.54;80.87
12471;BME280;36499;46.484;13.832;2022-09-24T06:23:35;93110.59;;;9.40;81.57
12471;BME280;36499;46.484;13.832;2022-09-24T06:26:06;93105.84;;;9.30;83.03
12471;BME280;36499;46.484;13.832;2022-09-24T06:28:37;93105.03;;;9.30;83.55
12471;BME280;36499;46.484;13.832;2022-09-24T06:31:05;93104.44;;;9.34;84.26
12471;BME280;36499;46.484;13.832;2022-09-24T06:33:32;93108.81;;;9.40;84.44
12471;BME280;36499;46.484;13.832;2022-09-24T06:36:02;93098.56;;;9.52;83.42
12471;BME280;36499;46.484;13.832;2022-09-24T06:38:30;93103.53;;;9.60;84.32
12471;BME280;36499;46.484;13.832;2022-09-24T06:40:59;93108.09;;;9.71;83.89
12471;BME280;36499;46.484;13.832;2022-09-24T06:43:28;93099.81;;;9.87;83.37
12471;BME280;36499;46.484;13.832;2022-09-24T06:46:00;93103.19;;;9.94;83.17
12471;BME280;36499;46.484;13.832;2022-09-24T06:48:30;93101.66;;;10.25;83.22
12471;BME280;36499;46.484;13.832;2022-09-24T06:50:57;93103.03;;;10.27;82.28
12471;BME280;36499;46.484;13.832;2022-09-24T06:53:25;93102.63;;;10.30;81.97
12471;BME280;36499;46.484;13.832;2022-09-24T06:55:56;93110.41;;;10.37;82.20
12471;BME280;36499;46.484;13.832;2022-09-24T06:58:25;93110.94;;;10.45;81.61
12471;BME280;36499;46.484;13.832;2022-09-24T07:00:56;93107.28;;;10.53;81.51
12471;BME280;36499;46.484;13.832;2022-09-24T07:03:26;93111.22;;;10.62;81.58
12471;BME280;36499;46.484;13.832;2022-09-24T07:05:53;93105.91;;;10.75;82.35
12471;BME280;36499;46.484;13.832;2022-09-24T07:08:21;93111.81;;;10.89;83.11
12471;BME280;36499;46.484;13.832;2022-09-24T07:10:48;93109.84;;;11.27;81.42
12471;BME280;36499;46.484;13.832;2022-09-24T07:13:18;93114.50;;;11.25;80.16
12471;BME280;36499;46.484;13.832;2022-09-24T07:15:48;93113.56;;;11.38;80.75
12471;BME280;36499;46.484;13.832;2022-09-24T07:18:17;93116.91;;;11.45;78.68
12471;BME280;36499;46.484;13.832;2022-09-24T07:20:50;93127.94;;;11.65;78.02
12471;BME280;36499;46.484;13.832;2022-09-24T07:23:18;93137.03;;;11.81;77.11
12471;BME280;36499;46.484;13.832;2022-09-24T07:25:47;93136.53;;;11.90;76.67
12471;BME280;36499;46.484;13.832;2022-09-24T07:28:15;93142.53;;;11.91;75.43
12471;BME280;36499;46.484;13.832;2022-09-24T07:30:43;93138.69;;;11.93;75.90
12471;BME280;36499;46.484;13.832;2022-09-24T07:33:10;93142.09;;;11.94;75.40
12471;BME280;36499;46.484;13.832;2022-09-24T07:35:39;93131.66;;;11.94;74.47
12471;BME280;36499;46.484;13.832;2022-09-24T07:38:09;93144.84;;;12.17;74.81
12471;BME280;36499;46.484;13.832;2022-09-24T07:40:38;93145.97;;;12.21;76.63
12471;BME280;36499;46.484;13.832;2022-09-24T07:43:05;93145.63;;;12.18;75.56
12471;BME280;36499;46.484;13.832;2022-09-24T07:45:39;93144.59;;;12.19;75.21
12471;BME280;36499;46.484;13.832;2022-09-24T07:48:07;93134.06;;;12.25;74.88
12471;BME280;36499;46.484;13.832;2022-09-24T07:50:40;93134.03;;;12.43;75.86
12471;BME280;36499;46.484;13.832;2022-09-24T07:53:10;93128.75;;;12.62;76.82
12471;BME280;36499;46.484;13.832;2022-09-24T07:55:38;93129.69;;;12.79;73.86
12471;BME280;36499;46.484;13.832;2022-09-24T07:58:07;93130.06;;;13.06;73.80
12471;BME280;36499;46.484;13.832;2022-09-24T08:00:37;93127.16;;;13.25;71.85
12471;BME280;36499;46.484;13.832;2022-09-24T08:03:05;93129.09;;;13.53;69.65
12471;BME280;36499;46.484;13.832;2022-09-24T08:05:33;93128.59;;;13.68;70.16
12471;BME280;36499;46.484;13.832;2022-09-24T08:08:02;93132.00;;;13.80;70.13
12471;BME280;36499;46.484;13.832;2022-09-24T08:10:29;93131.06;;;13.86;68.20
12471;BME280;36499;46.484;13.832;2022-09-24T08:13:01;93125.88;;;14.14;68.03
12471;BME280;36499;46.484;13.832;2022-09-24T08:15:28;93107.13;;;14.34;67.24
12471;BME280;36499;46.484;13.832;2022-09-24T08:18:00;93115.03;;;14.51;67.98
12471;BME280;36499;46.484;13.832;2022-09-24T08:20:28;93108.72;;;14.63;67.08
12471;BME280;36499;46.484;13.832;2022-09-24T08:23:01;93110.00;;;14.61;66.35
12471;BME280;36499;46.484;13.832;2022-09-24T08:25:29;93114.44;;;14.77;66.46
12471;BME280;36499;46.484;13.832;2022-09-24T08:28:01;93106.91;;;14.97;66.24
12471;BME280;36499;46.484;13.832;2022-09-24T08:30:28;93098.72;;;14.94;63.89
12471;BME280;36499;46.484;13.832;2022-09-24T08:32:56;93102.16;;;14.94;66.29
12471;BME280;36499;46.484;13.832;2022-09-24T08:35:23;93094.25;;;15.11;66.19
12471;BME280;36499;46.484;13.832;2022-09-24T08:37:53;93105.63;;;15.33;63.58
12471;BME280;36499;46.484;13.832;2022-09-24T08:40:25;93099.16;;;15.57;63.18
12471;BME280;36499;46.484;13.832;2022-09-24T08:43:03;93107.88;;;15.79;63.28
12471;BME280;36499;46.484;13.832;2022-09-24T08:45:41;93112.91;;;16.03;60.68
12471;BME280;36499;46.484;13.832;2022-09-24T08:48:32;93108.13;;;16.21;60.95
12471;BME280;36499;46.484;13.832;2022-09-24T08:51:10;93111.72;;;16.37;62.53
12471;BME280;36499;46.484;13.832;2022-09-24T08:53:45;93103.91;;;16.69;59.62
12471;BME280;36499;46.484;13.832;2022-09-24T08:56:24;93100.84;;;16.77;56.97
12471;BME280;36499;46.484;13.832;2022-09-24T08:58:57;93102.38;;;16.73;59.11
12471;BME280;36499;46.484;13.832;2022-09-24T09:01:38;93094.22;;;16.74;57.77
12471;BME280;36499;46.484;13.832;2022-09-24T09:04:25;93085.34;;;16.81;55.46
12471;BME280;36499;46.484;13.832;2022-09-24T09:07:09;93076.34;;;16.76;54.61
12471;BME280;36499;46.484;13.832;2022-09-24T09:09:49;93091.13;;;16.83;55.95
12471;BME280;36499;46.484;13.832;2022-09-24T09:12:28;93064.56;;;16.84;53.63
12471;BME280;36499;46.484;13.832;2022-09-24T09:15:02;93060.56;;;17.13;52.60
12471;BME280;36499;46.484;13.832;2022-09-24T09:17:41;93066.59;;;17.09;54.41
12471;BME280;36499;46.484;13.832;2022-09-24T09:20:17;93071.75;;;17.31;54.22
12471;BME280;36499;46.484;13.832;2022-09-24T09:22:49;93073.03;;;17.23;52.22
12471;BME280;36499;46.484;13.832;2022-09-24T09:25:22;93077.22;;;17.19;52.30
12471;BME280;36499;46.484;13.832;2022-09-24T09:27:59;93075.47;;;16.98;53.85
12471;BME280;36499;46.484;13.832;2022-09-24T09:30:37;93074.50;;;16.77;47.63
12471;BME280;36499;46.484;13.832;2022-09-24T09:33:27;93079.03;;;16.82;47.33
12471;BME280;36499;46.484;13.832;2022-09-24T09:36:15;93077.16;;;16.82;46.46
12471;BME280;36499;46.484;13.832;2022-09-24T09:38:53;93076.44;;;16.60;45.81
12471;BME280;36499;46.484;13.832;2022-09-24T09:41:37;93079.72;;;16.72;47.48
12471;BME280;36499;46.484;13.832;2022-09-24T09:44:24;93069.09;;;16.62;46.79
12471;BME280;36499;46.484;13.832;2022-09-24T09:46:59;93064.44;;;16.69;46.15
12471;BME280;36499;46.484;13.832;2022-09-24T09:49:35;93076.00;;;16.68;46.63
12471;BME280;36499;46.484;13.832;2022-09-24T09:52:13;93088.91;;;16.69;47.46
12471;BME280;36499;46.484;13.832;2022-09-24T09:54:42;93084.09;;;16.93;47.25
12471;BME280;36499;46.484;13.832;2022-09-24T09:57:15;93093.38;;;17.01;46.95
12471;BME280;36499;46.484;13.832;2022-09-24T09:59:50;93089.84;;;16.85;46.87
12471;BME280;36499;46.484;13.832;2022-09-24T10:02:23;93073.41;;;16.73;47.55
12471;BME280;36499;46.484;13.832;2022-09-24T10:04:55;93089.94;;;16.42;47.58
12471;BME280;36499;46.484;13.832;2022-09-24T10:07:24;93076.78;;;16.42;48.43
12471;BME280;36499;46.484;13.832;2022-09-24T10:10:01;93068.25;;;16.56;48.81
12471;BME280;36499;46.484;13.832;2022-09-24T10:12:28;93066.72;;;16.12;48.67
12471;BME280;36499;46.484;13.832;2022-09-24T10:15:00;93071.84;;;16.02;49.53
12471;BME280;36499;46.484;13.832;2022-09-24T10:17:33;93080.19;;;15.94;49.07
12471;BME280;36499;46.484;13.832;2022-09-24T10:20:07;93087.41;;;16.03;49.74
12471;BME280;36499;46.484;13.832;2022-09-24T10:22:36;93078.97;;;16.01;50.03
12471;BME280;36499;46.484;13.832;2022-09-24T10:25:05;93091.19;;;15.69;50.92
12471;BME280;36499;46.484;13.832;2022-09-24T10:27:35;93102.19;;;15.66;51.25
12471;BME280;36499;46.484;13.832;2022-09-24T10:30:15;93092.56;;;15.55;52.06
12471;BME280;36499;46.484;13.832;2022-09-24T10:33:02;93098.31;;;15.52;51.80
12471;BME280;36499;46.484;13.832;2022-09-24T10:35:33;93102.13;;;15.44;52.04
12471;BME280;36499;46.484;13.832;2022-09-24T10:38:13;93104.00;;;15.49;52.25
12471;BME280;36499;46.484;13.832;2022-09-24T10:40:41;93103.25;;;15.31;52.50
12471;BME280;36499;46.484;13.832;2022-09-24T10:43:17;93100.69;;;15.36;52.15
12471;BME280;36499;46.484;13.832;2022-09-24T10:46:16;93100.69;;;15.36;52.29
12471;BME280;36499;46.484;13.832;2022-09-24T10:49:00;93093.28;;;15.50;51.88
12471;BME280;36499;46.484;13.832;2022-09-24T10:51:39;93106.28;;;15.23;52.84
12471;BME280;36499;46.484;13.832;2022-09-24T10:54:34;93113.88;;;15.42;53.05
12471;BME280;36499;46.484;13.832;2022-09-24T10:57:23;93114.38;;;15.38;53.05
12471;BME280;36499;46.484;13.832;2022-09-24T11:00:07;93103.56;;;15.35;52.95
12471;BME280;36499;46.484;13.832;2022-09-24T11:03:30;93099.50;;;15.44;53.66
12471;BME280;36499;46.484;13.832;2022-09-24T11:06:14;93097.28;;;15.19;54.09
12471;BME280;36499;46.484;13.832;2022-09-24T11:09:03;93099.50;;;15.27;53.79
12471;BME280;36499;46.484;13.832;2022-09-24T11:11:49;93099.00;;;15.30;53.75
12471;BME280;36499;46.484;13.832;2022-09-24T11:14:46;93096.38;;;15.47;54.06
12471;BME280;36499;46.484;13.832;2022-09-24T11:19:52;93105.94;;;15.92;52.39
12471;BME280;36499;46.484;13.832;2022-09-24T11:22:42;93085.66;;;16.14;54.48
12471;BME280;36499;46.484;13.832;2022-09-24T11:25:29;93094.53;;;16.29;52.18
12471;BME280;36499;46.484;13.832;2022-09-24T11:28:24;93094.69;;;16.45;55.25
12471;BME280;36499;46.484;13.832;2022-09-24T11:31:10;93080.38;;;16.57;55.76
12471;BME280;36499;46.484;13.832;2022-09-24T11:34:05;93078.56;;;16.63;56.31
12471;BME280;36499;46.484;13.832;2022-09-24T11:36:58;93085.91;;;16.34;55.92
12471;BME280;36499;46.484;13.832;2022-09-24T11:39:49;93087.00;;;16.38;57.23
12471;BME280;36499;46.484;13.832;2022-09-24T11:42:25;93083.13;;;16.46;56.91
12471;BME280;36499;46.484;13.832;2022-09-24T11:45:24;93086.91;;;16.28;58.19
12471;BME280;36499;46.484;13.832;2022-09-24T11:51:10;93068.91;;;15.98;58.81
12471;BME280;36499;46.484;13.832;2022-09-24T11:53:47;93059.72;;;15.74;58.75
12471;BME280;36499;46.484;13.832;2022-09-24T11:56:22;93060.06;;;15.61;59.96
12471;BME280;36499;46.484;13.832;2022-09-24T11:58:54;93055.38;;;15.84;59.31
12471;BME280;36499;46.484;13.832;2022-09-24T12:01:29;93048.75;;;16.04;59.46
12471;BME280;36499;46.484;13.832;2022-09-24T12:04:09;93042.75;;;16.08;58.75
12471;BME280;36499;46.484;13.832;2022-09-24T12:06:45;93052.88;;;16.21;58.82
12471;BME280;36499;46.484;13.832;2022-09-24T12:09:26;93057.53;;;16.14;58.35
12471;BME280;36499;46.484;13.832;2022-09-24T12:12:03;93069.41;;;16.17;58.76
12471;BME280;36499;46.484;13.832;2022-09-24T12:14:44;93068.84;;;16.15;58.23
12471;BME280;36499;46.484;13.832;2022-09-24T12:17:20;93058.09;;;16.16;58.17
12471;BME280;36499;46.484;13.832;2022-09-24T12:19:55;93061.06;;;16.25;58.33
12471;BME280;36499;46.484;13.832;2022-09-24T12:22:26;93052.22;;;16.36;59.15
12471;BME280;36499;46.484;13.832;2022-09-24T12:24:59;93035.84;;;16.29;59.08
12471;BME280;36499;46.484;13.832;2022-09-24T12:27:33;93041.63;;;16.26;58.52
12471;BME280;36499;46.484;13.832;2022-09-24T12:30:15;93058.25;;;16.31;58.27
12471;BME280;36499;46.484;13.832;2022-09-24T12:33:08;93053.47;;;16.28;57.76
12471;BME280;36499;46.484;13.832;2022-09-24T12:35:55;93048.25;;;16.07;58.65
12471;BME280;36499;46.484;13.832;2022-09-24T12:38:34;93032.81;;;16.15;59.39
12471;BME280;36499;46.484;13.832;2022-09-24T12:41:22;93027.91;;;15.97;60.59
12471;BME280;36499;46.484;13.832;2022-09-24T12:44:00;93021.56;;;15.93;60.46
12471;BME280;36499;46.484;13.832;2022-09-24T12:46:37;93017.28;;;16.14;58.64
12471;BME280;36499;46.484;13.832;2022-09-24T12:49:22;93027.28;;;16.12;59.08
12471;BME280;36499;46.484;13.832;2022-09-24T12:51:58;93023.84;;;16.38;58.23
12471;BME280;36499;46.484;13.832;2022-09-24T12:54:29;93016.19;;;16.37;58.76
12471;BME280;36499;46.484;13.832;2022-09-24T12:57:07;93004.91;;;16.41;57.78
12471;BME280;36499;46.484;13.832;2022-09-24T12:59:49;93024.66;;;16.39;57.91
12471;BME280;36499;46.484;13.832;2022-09-24T13:02:21;93026.25;;;16.45;57.12
12471;BME280;36499;46.484;13.832;2022-09-24T13:05:16;93019.41;;;16.44;57.27
12471;BME280;36499;46.484;13.832;2022-09-24T13:07:56;93033.19;;;16.51;58.07
12471;BME280;36499;46.484;13.832;2022-09-24T13:10:27;93029.19;;;16.48;57.03
12471;BME280;36499;46.484;13.832;2022-09-24T13:12:58;93028.94;;;16.50;56.72
12471;BME280;36499;46.484;13.832;2022-09-24T13:15:32;93023.03;;;16.38;57.96
12471;BME280;36499;46.484;13.832;2022-09-24T13:18:20;93026.53;;;16.43;58.84
12471;BME280;36499;46.484;13.832;2022-09-24T13:21:01;93021.91;;;16.28;58.30
12471;BME280;36499;46.484;13.832;2022-09-24T13:23:49;93030.84;;;16.27;58.79
12471;BME280;36499;46.484;13.832;2022-09-24T13:26:30;93027.84;;;15.92;57.92
12471;BME280;36499;46.484;13.832;2022-09-24T13:29:03;93028.00;;;16.07;59.49
12471;BME280;36499;46.484;13.832;2022-09-24T13:31:40;93029.66;;;15.92;56.30
12471;BME280;36499;46.484;13.832;2022-09-24T13:34:19;93025.88;;;16.04;58.17